createdAt,value
2018-08-31T00:00:57.396Z,15.15
2018-08-31T00:01:57.305Z,15.17
2018-08-31T00:02:57.197Z,15.11
2018-08-31T00:03:57.094Z,15.19
2018-08-31T00:04:57.005Z,15.07
2018-08-31T00:05:56.905Z,15.11
2018-08-31T00:06:56.803Z,15.18
2018-08-31T00:07:56.713Z,15.10
2018-08-31T00:08:56.603Z,15.15
2018-08-31T00:09:56.500Z,15.10
2018-08-31T00:10:56.412Z,15.10
2018-08-31T00:11:56.309Z,15.09
2018-08-31T00:12:56.208Z,15.09
2018-08-31T00:13:56.107Z,15.00
2018-08-31T00:14:56.011Z,15.04
2018-08-31T00:15:55.906Z,15.04
2018-08-31T00:16:55.808Z,14.94
2018-08-31T00:17:55.730Z,14.94
2018-08-31T00:18:55.610Z,14.92
2018-08-31T00:19:55.506Z,14.89
2018-08-31T00:20:55.414Z,14.82
2018-08-31T00:21:55.313Z,14.86
2018-08-31T00:22:55.211Z,14.88
2018-08-31T00:23:55.119Z,14.73
2018-08-31T00:24:55.014Z,14.88
2018-08-31T00:25:54.927Z,14.79
2018-08-31T00:26:54.825Z,14.82
2018-08-31T00:27:54.722Z,14.78
2018-08-31T00:28:54.616Z,14.72
2018-08-31T00:29:54.824Z,14.65
2018-08-31T00:30:54.418Z,14.72
2018-08-31T00:31:54.315Z,14.66
2018-08-31T00:32:54.216Z,14.59
2018-08-31T00:33:54.125Z,14.62
2018-08-31T00:34:54.017Z,14.59
2018-08-31T00:35:53.914Z,14.59
2018-08-31T00:36:53.824Z,14.62
2018-08-31T00:37:53.721Z,14.69
2018-08-31T00:38:53.622Z,14.58
2018-08-31T00:39:53.781Z,14.59
2018-08-31T00:40:53.422Z,14.62
2018-08-31T00:41:53.319Z,14.51
2018-08-31T00:42:53.220Z,14.62
2018-08-31T00:43:53.128Z,14.62
2018-08-31T00:44:53.028Z,14.54
2018-08-31T00:45:52.923Z,14.51
2018-08-31T00:46:52.832Z,14.62
2018-08-31T00:47:52.727Z,14.60
2018-08-31T00:48:52.627Z,14.45
2018-08-31T00:49:52.535Z,14.45
2018-08-31T00:50:52.428Z,14.44
2018-08-31T00:51:52.325Z,14.37
2018-08-31T00:52:52.219Z,14.36
2018-08-31T00:53:52.130Z,14.36
2018-08-31T00:54:52.030Z,14.43
2018-08-31T00:55:51.927Z,14.33
2018-08-31T00:56:51.832Z,14.32
2018-08-31T00:57:51.765Z,14.30
2018-08-31T00:58:51.631Z,14.29
2018-08-31T00:59:51.777Z,14.29
2018-08-31T01:00:51.435Z,14.26
2018-08-31T01:01:51.332Z,14.22
2018-08-31T01:02:51.228Z,14.29
2018-08-31T01:03:51.121Z,14.23
2018-08-31T01:04:51.031Z,14.25
2018-08-31T01:05:50.927Z,14.20
2018-08-31T01:06:50.827Z,14.25
2018-08-31T01:07:50.737Z,14.28
2018-08-31T01:08:50.643Z,14.15
2018-08-31T01:09:50.535Z,14.11
2018-08-31T01:10:50.424Z,14.07
2018-08-31T01:11:50.333Z,14.05
2018-08-31T01:12:50.235Z,14.11
2018-08-31T01:13:50.129Z,14.08
2018-08-31T01:14:50.025Z,14.05
2018-08-31T01:15:49.932Z,14.07
2018-08-31T01:16:49.831Z,14.00
2018-08-31T01:17:49.727Z,14.00
2018-08-31T01:18:49.639Z,14.03
2018-08-31T01:19:49.538Z,13.92
2018-08-31T01:20:49.429Z,13.95
2018-08-31T01:21:49.325Z,13.96
2018-08-31T01:22:49.240Z,13.95
2018-08-31T01:23:49.129Z,13.81
2018-08-31T01:24:49.030Z,13.93
2018-08-31T01:25:48.928Z,13.86
2018-08-31T01:26:48.832Z,13.89
2018-08-31T01:27:48.729Z,13.92
2018-08-31T01:28:48.631Z,13.87
2018-08-31T01:29:48.530Z,13.78
2018-08-31T01:30:48.435Z,13.85
2018-08-31T01:31:48.331Z,13.87
2018-08-31T01:32:48.235Z,13.74
2018-08-31T01:33:48.123Z,13.85
2018-08-31T01:34:48.035Z,13.72
2018-08-31T01:35:47.931Z,13.71
2018-08-31T01:36:47.832Z,13.77
2018-08-31T01:37:47.721Z,13.70
2018-08-31T01:38:47.635Z,13.71
2018-08-31T01:39:47.781Z,13.74
2018-08-31T01:40:47.430Z,13.71
2018-08-31T01:41:47.332Z,13.74
2018-08-31T01:42:47.230Z,13.68
2018-08-31T01:43:47.127Z,13.68
2018-08-31T01:44:47.029Z,13.62
2018-08-31T01:45:46.933Z,13.56
2018-08-31T01:46:46.829Z,13.57
2018-08-31T01:47:46.726Z,13.60
2018-08-31T01:48:46.625Z,13.57
2018-08-31T01:49:46.525Z,13.52
2018-08-31T01:50:46.433Z,13.46
2018-08-31T01:51:46.331Z,13.38
2018-08-31T01:52:46.244Z,13.46
2018-08-31T01:53:46.121Z,13.46
2018-08-31T01:54:46.034Z,13.49
2018-08-31T01:55:45.934Z,13.46
2018-08-31T01:56:45.825Z,13.42
2018-08-31T01:57:45.722Z,13.44
2018-08-31T01:58:45.639Z,13.41
2018-08-31T01:59:45.523Z,13.39
2018-08-31T02:00:45.426Z,13.38
2018-08-31T02:01:45.322Z,13.35
2018-08-31T02:02:45.228Z,13.37
2018-08-31T02:03:45.125Z,13.37
2018-08-31T02:04:45.021Z,13.41
2018-08-31T02:05:44.916Z,13.35
2018-08-31T02:06:44.829Z,13.39
2018-08-31T02:07:44.739Z,13.37
2018-08-31T02:08:44.620Z,13.39
2018-08-31T02:09:44.520Z,13.38
2018-08-31T02:10:44.418Z,13.37
2018-08-31T02:11:44.326Z,13.38
2018-08-31T02:12:44.223Z,13.39
2018-08-31T02:13:44.120Z,13.30
2018-08-31T02:14:44.012Z,13.39
2018-08-31T02:15:43.934Z,13.27
2018-08-31T02:16:43.823Z,13.27
2018-08-31T02:17:43.722Z,13.23
2018-08-31T02:18:43.613Z,13.30
2018-08-31T02:19:43.510Z,13.18
2018-08-31T02:20:43.417Z,13.18
2018-08-31T02:21:43.314Z,13.13
2018-08-31T02:22:43.214Z,13.20
2018-08-31T02:23:43.111Z,13.05
2018-08-31T02:24:43.015Z,13.12
2018-08-31T02:25:42.912Z,13.05
2018-08-31T02:26:42.813Z,13.01
2018-08-31T02:27:42.712Z,12.95
2018-08-31T02:28:42.610Z,12.97
2018-08-31T02:29:42.518Z,12.97
2018-08-31T02:30:42.410Z,12.97
2018-08-31T02:31:42.308Z,12.93
2018-08-31T02:32:42.206Z,13.00
2018-08-31T02:33:42.115Z,12.97
2018-08-31T02:34:42.007Z,12.94
2018-08-31T02:35:41.904Z,12.97
2018-08-31T02:36:41.803Z,12.95
2018-08-31T02:37:41.701Z,12.97
2018-08-31T02:38:41.613Z,12.94
2018-08-31T02:39:42.213Z,13.00
2018-08-31T02:40:41.403Z,12.97
2018-08-31T02:41:41.300Z,12.94
2018-08-31T02:42:41.212Z,12.87
2018-08-31T02:43:41.109Z,12.97
2018-08-31T02:44:41.003Z,12.94
2018-08-31T02:45:40.901Z,12.93
2018-08-31T02:46:40.794Z,12.95
2018-08-31T02:47:40.704Z,12.93
2018-08-31T02:48:40.606Z,12.86
2018-08-31T02:49:40.504Z,12.79
2018-08-31T02:50:40.395Z,12.76
2018-08-31T02:51:40.291Z,12.76
2018-08-31T02:52:40.202Z,12.79
2018-08-31T02:53:40.095Z,12.83
2018-08-31T02:54:39.995Z,12.79
2018-08-31T02:55:39.892Z,12.76
2018-08-31T02:56:39.848Z,12.76
2018-08-31T02:57:39.695Z,12.76
2018-08-31T02:58:39.596Z,12.73
2018-08-31T02:59:39.493Z,12.72
2018-08-31T03:00:39.391Z,12.75
2018-08-31T03:01:39.303Z,12.75
2018-08-31T03:02:39.193Z,12.68
2018-08-31T03:03:39.088Z,12.75
2018-08-31T03:04:38.988Z,12.75
2018-08-31T03:05:38.884Z,12.76
2018-08-31T03:06:38.793Z,12.73
2018-08-31T03:07:38.686Z,12.72
2018-08-31T03:08:38.588Z,12.64
2018-08-31T03:09:38.482Z,12.75
2018-08-31T03:10:38.385Z,12.73
2018-08-31T03:11:38.310Z,12.73
2018-08-31T03:12:38.188Z,12.70
2018-08-31T03:13:38.085Z,12.70
2018-08-31T03:14:37.977Z,12.60
2018-08-31T03:15:37.874Z,12.73
2018-08-31T03:16:37.773Z,12.73
2018-08-31T03:17:37.681Z,12.73
2018-08-31T03:18:37.579Z,12.67
2018-08-31T03:19:37.476Z,12.70
2018-08-31T03:20:37.372Z,12.73
2018-08-31T03:21:37.278Z,12.73
2018-08-31T03:22:37.180Z,12.70
2018-08-31T03:23:37.076Z,12.65
2018-08-31T03:24:36.971Z,12.68
2018-08-31T03:25:36.867Z,12.62
2018-08-31T03:26:36.773Z,12.65
2018-08-31T03:27:36.669Z,12.64
2018-08-31T03:28:36.571Z,12.50
2018-08-31T03:29:36.718Z,12.64
2018-08-31T03:30:36.360Z,12.60
2018-08-31T03:31:36.260Z,12.61
2018-08-31T03:32:36.167Z,12.61
2018-08-31T03:33:36.064Z,12.61
2018-08-31T03:34:35.965Z,12.64
2018-08-31T03:35:35.875Z,12.54
2018-08-31T03:36:35.754Z,12.62
2018-08-31T03:37:35.661Z,12.58
2018-08-31T03:38:35.563Z,12.49
2018-08-31T03:39:35.763Z,12.61
2018-08-31T03:40:35.359Z,12.55
2018-08-31T03:41:35.255Z,12.55
2018-08-31T03:42:35.171Z,12.57
2018-08-31T03:43:35.056Z,12.50
2018-08-31T03:44:34.957Z,12.58
2018-08-31T03:45:34.855Z,12.57
2018-08-31T03:46:34.747Z,12.57
2018-08-31T03:47:34.655Z,12.42
2018-08-31T03:48:34.550Z,12.57
2018-08-31T03:49:34.448Z,12.49
2018-08-31T03:50:34.348Z,12.60
2018-08-31T03:51:34.245Z,12.60
2018-08-31T03:52:34.139Z,12.50
2018-08-31T03:53:34.047Z,12.50
2018-08-31T03:54:33.948Z,12.54
2018-08-31T03:55:33.845Z,12.53
2018-08-31T03:56:33.739Z,12.49
2018-08-31T03:57:33.637Z,12.54
2018-08-31T03:58:33.542Z,12.47
2018-08-31T03:59:33.739Z,12.54
2018-08-31T04:00:33.346Z,12.57
2018-08-31T04:01:33.236Z,12.57
2018-08-31T04:02:33.128Z,12.53
2018-08-31T04:03:33.026Z,12.49
2018-08-31T04:04:32.936Z,12.54
2018-08-31T04:05:32.833Z,12.50
2018-08-31T04:06:32.733Z,12.49
2018-08-31T04:07:32.630Z,12.46
2018-08-31T04:08:32.522Z,12.46
2018-08-31T04:09:32.431Z,12.50
2018-08-31T04:10:32.331Z,12.49
2018-08-31T04:11:32.227Z,12.46
2018-08-31T04:12:32.127Z,12.46
2018-08-31T04:13:32.023Z,12.47
2018-08-31T04:14:31.930Z,12.45
2018-08-31T04:15:31.824Z,12.50
2018-08-31T04:16:31.723Z,12.46
2018-08-31T04:17:31.620Z,12.45
2018-08-31T04:18:31.512Z,12.50
2018-08-31T04:19:31.411Z,12.53
2018-08-31T04:20:31.322Z,12.50
2018-08-31T04:21:31.219Z,12.47
2018-08-31T04:22:31.119Z,12.49
2018-08-31T04:23:31.016Z,12.45
2018-08-31T04:24:30.908Z,12.46
2018-08-31T04:25:30.815Z,12.46
2018-08-31T04:26:30.716Z,12.49
2018-08-31T04:27:30.614Z,12.54
2018-08-31T04:28:30.511Z,12.49
2018-08-31T04:29:30.409Z,12.49
2018-08-31T04:30:30.314Z,12.53
2018-08-31T04:31:30.212Z,12.53
2018-08-31T04:32:30.111Z,12.49
2018-08-31T04:33:30.009Z,12.50
2018-08-31T04:34:30.212Z,12.46
2018-08-31T04:35:29.809Z,12.53
2018-08-31T04:36:29.708Z,12.57
2018-08-31T04:37:29.614Z,12.54
2018-08-31T04:38:29.501Z,12.53
2018-08-31T04:39:29.397Z,12.47
2018-08-31T04:40:29.294Z,12.47
2018-08-31T04:41:29.202Z,12.42
2018-08-31T04:42:29.103Z,12.45
2018-08-31T04:43:29.000Z,12.47
2018-08-31T04:44:28.895Z,12.60
2018-08-31T04:45:28.805Z,12.57
2018-08-31T04:46:28.708Z,12.49
2018-08-31T04:47:28.606Z,12.61
2018-08-31T04:48:28.494Z,12.61
2018-08-31T04:49:28.390Z,12.60
2018-08-31T04:50:28.311Z,12.64
2018-08-31T04:51:28.193Z,12.62
2018-08-31T04:52:28.094Z,12.60
2018-08-31T04:53:27.988Z,12.61
2018-08-31T04:54:27.889Z,12.60
2018-08-31T04:55:27.790Z,12.70
2018-08-31T04:56:27.687Z,12.78
2018-08-31T04:57:27.584Z,12.75
2018-08-31T04:58:27.486Z,12.85
2018-08-31T04:59:27.381Z,12.98
2018-08-31T05:00:27.291Z,13.08
2018-08-31T05:01:27.190Z,13.19
2018-08-31T05:02:27.085Z,13.25
2018-08-31T05:03:26.980Z,13.25
2018-08-31T05:04:26.881Z,13.47
2018-08-31T05:05:26.789Z,13.46
2018-08-31T05:06:26.681Z,13.47
2018-08-31T05:07:26.578Z,13.50
2018-08-31T05:08:26.473Z,13.57
2018-08-31T05:09:26.383Z,13.67
2018-08-31T05:10:26.283Z,13.75
2018-08-31T05:11:26.180Z,13.83
2018-08-31T05:12:26.075Z,13.90
2018-08-31T05:13:25.983Z,13.86
2018-08-31T05:14:25.887Z,13.92
2018-08-31T05:15:25.780Z,13.97
2018-08-31T05:16:25.675Z,14.05
2018-08-31T05:17:25.586Z,14.12
2018-08-31T05:18:25.483Z,14.17
2018-08-31T05:19:25.380Z,14.26
2018-08-31T05:20:25.283Z,14.28
2018-08-31T05:21:25.181Z,14.17
2018-08-31T05:22:25.140Z,14.15
2018-08-31T05:23:24.977Z,14.20
2018-08-31T05:24:25.150Z,14.33
2018-08-31T05:25:24.786Z,14.40
2018-08-31T05:26:24.678Z,14.55
2018-08-31T05:27:24.587Z,14.70
2018-08-31T05:28:24.548Z,14.82
2018-08-31T05:29:24.396Z,14.94
2018-08-31T05:30:24.288Z,15.00
2018-08-31T05:31:24.185Z,15.21
2018-08-31T05:32:24.083Z,15.28
2018-08-31T05:33:23.991Z,15.37
2018-08-31T05:34:23.893Z,15.47
2018-08-31T05:35:23.790Z,15.44
2018-08-31T05:36:23.695Z,15.24
2018-08-31T05:37:23.593Z,15.17
2018-08-31T05:38:23.493Z,14.94
2018-08-31T05:39:23.401Z,14.96
2018-08-31T05:40:23.295Z,15.15
2018-08-31T05:41:23.195Z,15.28
2018-08-31T05:42:23.099Z,15.55
2018-08-31T05:43:22.996Z,15.80
2018-08-31T05:44:23.151Z,15.70
2018-08-31T05:45:22.807Z,15.67
2018-08-31T05:46:22.700Z,15.11
2018-08-31T05:47:22.612Z,14.97
2018-08-31T05:48:22.504Z,14.73
2018-08-31T05:49:22.400Z,14.86
2018-08-31T05:50:22.313Z,14.88
2018-08-31T05:51:22.223Z,14.89
2018-08-31T05:52:22.116Z,15.04
2018-08-31T05:53:22.055Z,15.51
2018-08-31T05:54:21.914Z,15.88
2018-08-31T05:55:21.821Z,16.28
2018-08-31T05:56:21.724Z,16.36
2018-08-31T05:57:21.619Z,16.43
2018-08-31T05:58:21.524Z,16.32
2018-08-31T05:59:21.423Z,16.16
2018-08-31T06:00:21.330Z,15.86
2018-08-31T06:01:21.226Z,15.76
2018-08-31T06:02:21.200Z,15.59
2018-08-31T06:03:21.029Z,15.28
2018-08-31T06:04:20.928Z,15.19
2018-08-31T06:05:20.846Z,15.11
2018-08-31T06:06:20.737Z,15.19
2018-08-31T06:07:20.648Z,15.27
2018-08-31T06:08:20.541Z,15.28
2018-08-31T06:09:20.448Z,15.27
2018-08-31T06:10:20.349Z,15.24
2018-08-31T06:11:20.247Z,15.18
2018-08-31T06:12:20.154Z,15.09
2018-08-31T06:13:20.050Z,15.09
2018-08-31T06:14:19.967Z,14.99
2018-08-31T06:15:19.851Z,15.10
2018-08-31T06:16:19.767Z,15.04
2018-08-31T06:17:19.666Z,15.11
2018-08-31T06:18:19.567Z,15.07
2018-08-31T06:19:19.465Z,15.03
2018-08-31T06:20:19.359Z,15.02
2018-08-31T06:21:19.269Z,15.03
2018-08-31T06:22:19.170Z,15.06
2018-08-31T06:23:19.078Z,15.04
2018-08-31T06:24:18.973Z,14.99
2018-08-31T06:25:18.870Z,15.15
2018-08-31T06:26:18.783Z,15.03
2018-08-31T06:27:18.681Z,15.04
2018-08-31T06:28:18.587Z,14.99
2018-08-31T06:29:18.484Z,14.84
2018-08-31T06:30:18.377Z,14.88
2018-08-31T06:31:18.291Z,14.88
2018-08-31T06:32:18.190Z,15.14
2018-08-31T06:33:18.099Z,15.29
2018-08-31T06:34:17.990Z,15.40
2018-08-31T06:35:17.907Z,15.64
2018-08-31T06:36:17.794Z,15.82
2018-08-31T06:37:17.691Z,16.02
2018-08-31T06:38:17.604Z,16.09
2018-08-31T06:39:17.804Z,16.39
2018-08-31T06:40:17.395Z,16.57
2018-08-31T06:41:17.303Z,16.64
2018-08-31T06:42:17.203Z,16.02
2018-08-31T06:43:17.115Z,15.88
2018-08-31T06:44:17.013Z,15.79
2018-08-31T06:45:16.921Z,15.76
2018-08-31T06:46:16.814Z,15.75
2018-08-31T06:47:16.722Z,15.77
2018-08-31T06:48:16.620Z,15.54
2018-08-31T06:49:16.531Z,15.52
2018-08-31T06:50:16.424Z,15.46
2018-08-31T06:51:16.359Z,15.40
2018-08-31T06:52:16.230Z,15.55
2018-08-31T06:53:16.128Z,15.51
2018-08-31T06:54:16.042Z,15.37
2018-08-31T06:55:15.939Z,15.39
2018-08-31T06:56:15.842Z,15.27
2018-08-31T06:57:15.739Z,15.36
2018-08-31T06:58:15.653Z,15.44
2018-08-31T06:59:15.800Z,15.44
2018-08-31T07:00:15.457Z,15.46
2018-08-31T07:01:15.353Z,15.62
2018-08-31T07:02:15.247Z,15.68
2018-08-31T07:03:15.155Z,15.67
2018-08-31T07:04:15.062Z,15.49
2018-08-31T07:05:14.966Z,15.59
2018-08-31T07:06:14.859Z,15.67
2018-08-31T07:07:14.769Z,15.76
2018-08-31T07:08:14.664Z,15.94
2018-08-31T07:09:14.572Z,16.04
2018-08-31T07:10:14.473Z,15.97
2018-08-31T07:11:14.371Z,16.16
2018-08-31T07:12:14.334Z,16.29
2018-08-31T07:13:14.172Z,16.02
2018-08-31T07:14:14.087Z,16.01
2018-08-31T07:15:13.995Z,15.91
2018-08-31T07:16:13.895Z,15.90
2018-08-31T07:17:13.790Z,15.91
2018-08-31T07:18:13.695Z,15.91
2018-08-31T07:19:13.868Z,16.01
2018-08-31T07:20:13.503Z,16.04
2018-08-31T07:21:13.401Z,16.12
2018-08-31T07:22:13.306Z,16.17
2018-08-31T07:23:13.201Z,16.29
2018-08-31T07:24:13.100Z,16.21
2018-08-31T07:25:13.010Z,16.32
2018-08-31T07:26:12.936Z,16.31
2018-08-31T07:27:12.819Z,16.47
2018-08-31T07:28:12.713Z,16.31
2018-08-31T07:29:12.625Z,16.49
2018-08-31T07:30:12.516Z,16.42
2018-08-31T07:31:12.424Z,16.32
2018-08-31T07:32:12.359Z,16.41
2018-08-31T07:33:12.233Z,16.36
2018-08-31T07:34:12.134Z,16.39
2018-08-31T07:35:12.043Z,16.50
2018-08-31T07:36:11.950Z,16.35
2018-08-31T07:37:11.844Z,16.21
2018-08-31T07:38:11.744Z,16.29
2018-08-31T07:39:11.891Z,16.24
2018-08-31T07:40:11.564Z,16.31
2018-08-31T07:41:11.461Z,16.33
2018-08-31T07:42:11.354Z,16.35
2018-08-31T07:43:11.250Z,16.64
2018-08-31T07:44:11.164Z,16.65
2018-08-31T07:45:11.060Z,16.61
2018-08-31T07:46:10.965Z,16.54
2018-08-31T07:47:10.861Z,16.69
2018-08-31T07:48:10.768Z,16.83
2018-08-31T07:49:10.665Z,16.61
2018-08-31T07:50:10.585Z,16.66
2018-08-31T07:51:10.476Z,17.08
2018-08-31T07:52:10.382Z,17.15
2018-08-31T07:53:10.280Z,17.15
2018-08-31T07:54:10.198Z,17.08
2018-08-31T07:55:10.090Z,16.90
2018-08-31T07:56:09.996Z,17.09
2018-08-31T07:57:09.893Z,17.12
2018-08-31T07:58:09.799Z,17.14
2018-08-31T07:59:09.946Z,17.20
2018-08-31T08:00:09.608Z,17.19
2018-08-31T08:01:09.505Z,17.33
2018-08-31T08:02:09.416Z,17.44
2018-08-31T08:03:09.307Z,17.44
2018-08-31T08:04:09.218Z,17.51
2018-08-31T08:05:09.117Z,17.44
2018-08-31T08:06:09.028Z,17.39
2018-08-31T08:07:08.937Z,17.29
2018-08-31T08:08:08.827Z,17.26
2018-08-31T08:09:08.765Z,17.14
2018-08-31T08:10:08.638Z,17.29
2018-08-31T08:11:08.547Z,17.23
2018-08-31T08:12:08.445Z,17.20
2018-08-31T08:13:08.356Z,17.06
2018-08-31T08:14:08.252Z,17.16
2018-08-31T08:15:08.157Z,17.11
2018-08-31T08:16:08.087Z,17.16
2018-08-31T08:17:07.967Z,17.29
2018-08-31T08:18:07.872Z,17.14
2018-08-31T08:19:08.018Z,17.30
2018-08-31T08:20:07.676Z,17.48
2018-08-31T08:21:07.573Z,17.51
2018-08-31T08:22:07.490Z,17.39
2018-08-31T08:23:07.388Z,17.39
2018-08-31T08:24:07.291Z,17.26
2018-08-31T08:25:07.198Z,17.30
2018-08-31T08:26:07.100Z,17.22
2018-08-31T08:27:07.009Z,17.38
2018-08-31T08:28:06.904Z,17.59
2018-08-31T08:29:06.813Z,17.83
2018-08-31T08:30:06.719Z,17.90
2018-08-31T08:31:06.615Z,17.67
2018-08-31T08:32:06.543Z,17.41
2018-08-31T08:33:06.440Z,17.45
2018-08-31T08:34:06.333Z,17.48
2018-08-31T08:35:06.241Z,17.56
2018-08-31T08:36:06.225Z,17.39
2018-08-31T08:37:06.045Z,17.33
2018-08-31T08:38:05.947Z,17.34
2018-08-31T08:39:06.105Z,17.39
2018-08-31T08:40:05.764Z,17.45
2018-08-31T08:41:05.660Z,17.64
2018-08-31T08:42:05.602Z,17.87
2018-08-31T08:43:05.469Z,17.97
2018-08-31T08:44:05.376Z,18.25
2018-08-31T08:45:05.287Z,18.43
2018-08-31T08:46:05.177Z,18.28
2018-08-31T08:47:05.089Z,18.11
2018-08-31T08:48:05.045Z,18.22
2018-08-31T08:49:04.896Z,18.52
2018-08-31T08:50:04.802Z,18.71
2018-08-31T08:51:04.698Z,18.96
2018-08-31T08:52:04.609Z,19.16
2018-08-31T08:53:04.507Z,18.99
2018-08-31T08:54:04.421Z,19.18
2018-08-31T08:55:04.329Z,19.34
2018-08-31T08:56:04.219Z,19.62
2018-08-31T08:57:04.129Z,19.70
2018-08-31T08:58:04.098Z,19.96
2018-08-31T08:59:03.938Z,20.04
2018-08-31T09:00:03.850Z,20.25
2018-08-31T09:01:03.747Z,20.40
2018-08-31T09:02:03.651Z,20.48
2018-08-31T09:03:03.562Z,20.39
2018-08-31T09:04:03.462Z,20.59
2018-08-31T09:05:03.371Z,20.43
2018-08-31T09:06:03.277Z,20.28
2018-08-31T09:07:03.172Z,20.13
2018-08-31T09:08:03.079Z,20.24
2018-08-31T09:09:03.004Z,20.22
2018-08-31T09:10:02.903Z,20.21
2018-08-31T09:11:02.800Z,20.03
2018-08-31T09:12:02.729Z,20.04
2018-08-31T09:13:02.615Z,19.92
2018-08-31T09:14:02.520Z,19.69
2018-08-31T09:15:02.426Z,19.84
2018-08-31T09:16:02.332Z,19.92
2018-08-31T09:17:02.247Z,20.03
2018-08-31T09:18:02.136Z,20.25
2018-08-31T09:19:02.043Z,20.34
2018-08-31T09:20:01.959Z,20.50
2018-08-31T09:21:01.866Z,20.55
2018-08-31T09:22:01.758Z,20.58
2018-08-31T09:23:01.668Z,20.63
2018-08-31T09:24:01.579Z,20.87
2018-08-31T09:25:01.476Z,21.20
2018-08-31T09:26:01.389Z,21.43
2018-08-31T09:27:01.297Z,21.52
2018-08-31T09:28:01.203Z,21.69
2018-08-31T09:29:01.109Z,21.95
2018-08-31T09:30:01.011Z,21.80
2018-08-31T09:31:00.921Z,21.83
2018-08-31T09:32:00.831Z,21.80
2018-08-31T09:33:00.728Z,21.83
2018-08-31T09:34:00.637Z,21.69
2018-08-31T09:35:00.542Z,21.95
2018-08-31T09:36:00.455Z,21.45
2018-08-31T09:37:00.360Z,21.82
2018-08-31T09:38:00.261Z,21.60
2018-08-31T09:39:00.171Z,21.58
2018-08-31T09:40:00.077Z,22.08
2018-08-31T09:40:59.988Z,22.20
2018-08-31T09:41:59.893Z,21.96
2018-08-31T09:42:59.801Z,22.06
2018-08-31T09:43:59.775Z,21.85
2018-08-31T09:44:59.613Z,22.06
2018-08-31T09:45:59.519Z,22.04
2018-08-31T09:46:59.440Z,22.22
2018-08-31T09:47:59.334Z,22.13
2018-08-31T09:48:59.243Z,22.87
2018-08-31T09:49:59.158Z,23.55
2018-08-31T09:50:59.065Z,23.68
2018-08-31T09:51:58.962Z,24.20
2018-08-31T09:52:58.868Z,24.50
2018-08-31T09:53:58.781Z,24.57
2018-08-31T09:54:58.691Z,24.66
2018-08-31T09:55:58.601Z,24.32
2018-08-31T09:56:58.511Z,23.83
2018-08-31T09:57:58.418Z,23.66
2018-08-31T09:58:58.327Z,23.46
2018-08-31T09:59:58.236Z,23.09
2018-08-31T10:00:58.147Z,22.76
2018-08-31T10:01:58.052Z,22.18
2018-08-31T10:02:57.960Z,21.48
2018-08-31T10:03:57.870Z,21.33
2018-08-31T10:04:57.780Z,21.43
2018-08-31T10:05:57.696Z,21.43
2018-08-31T10:06:57.592Z,21.32
2018-08-31T10:07:57.496Z,21.45
2018-08-31T10:08:57.404Z,21.37
2018-08-31T10:09:57.319Z,21.39
2018-08-31T10:10:57.227Z,21.20
2018-08-31T10:11:57.142Z,21.35
2018-08-31T10:12:57.043Z,21.54
2018-08-31T10:13:56.951Z,21.85
2018-08-31T10:14:56.857Z,22.11
2018-08-31T10:15:56.773Z,22.07
2018-08-31T10:16:56.676Z,22.04
2018-08-31T10:17:56.574Z,21.98
2018-08-31T10:18:56.735Z,22.10
2018-08-31T10:19:56.391Z,22.22
2018-08-31T10:20:56.301Z,22.18
2018-08-31T10:21:56.213Z,22.26
2018-08-31T10:22:56.123Z,22.50
2018-08-31T10:23:56.028Z,22.53
2018-08-31T10:24:55.924Z,22.57
2018-08-31T10:25:55.837Z,22.80
2018-08-31T10:26:55.750Z,22.87
2018-08-31T10:27:55.659Z,23.23
2018-08-31T10:28:55.569Z,23.31
2018-08-31T10:29:55.474Z,23.27
2018-08-31T10:30:55.381Z,23.06
2018-08-31T10:31:55.293Z,22.76
2018-08-31T10:32:55.202Z,22.96
2018-08-31T10:33:55.094Z,22.80
2018-08-31T10:34:55.004Z,22.47
2018-08-31T10:35:54.915Z,22.39
2018-08-31T10:36:54.825Z,21.85
2018-08-31T10:37:54.737Z,21.70
2018-08-31T10:38:54.897Z,21.43
2018-08-31T10:39:54.548Z,21.37
2018-08-31T10:40:54.460Z,21.27
2018-08-31T10:41:54.372Z,21.45
2018-08-31T10:42:54.281Z,21.42
2018-08-31T10:43:54.179Z,21.33
2018-08-31T10:44:54.089Z,21.39
2018-08-31T10:45:53.997Z,21.46
2018-08-31T10:46:53.906Z,21.51
2018-08-31T10:47:53.816Z,21.66
2018-08-31T10:48:53.724Z,21.85
2018-08-31T10:49:53.617Z,22.18
2018-08-31T10:50:53.526Z,22.25
2018-08-31T10:51:53.436Z,22.22
2018-08-31T10:52:53.346Z,22.39
2018-08-31T10:53:53.258Z,22.63
2018-08-31T10:54:53.169Z,22.72
2018-08-31T10:55:53.077Z,22.90
2018-08-31T10:56:52.982Z,22.91
2018-08-31T10:57:52.884Z,23.21
2018-08-31T10:58:52.795Z,23.32
2018-08-31T10:59:52.702Z,23.34
2018-08-31T11:00:52.610Z,23.24
2018-08-31T11:01:52.514Z,22.84
2018-08-31T11:02:52.422Z,22.48
2018-08-31T11:03:52.340Z,22.38
2018-08-31T11:04:52.248Z,21.98
2018-08-31T11:05:52.157Z,22.08
2018-08-31T11:06:52.050Z,22.08
2018-08-31T11:07:51.957Z,22.15
2018-08-31T11:08:51.866Z,22.50
2018-08-31T11:09:51.779Z,22.35
2018-08-31T11:10:51.689Z,22.22
2018-08-31T11:11:51.594Z,22.47
2018-08-31T11:12:51.557Z,22.36
2018-08-31T11:13:51.416Z,22.72
2018-08-31T11:14:51.313Z,22.90
2018-08-31T11:15:51.224Z,22.88
2018-08-31T11:16:51.132Z,22.90
2018-08-31T11:17:51.039Z,22.70
2018-08-31T11:18:51.227Z,22.30
2018-08-31T11:19:50.859Z,21.62
2018-08-31T11:20:50.768Z,21.33
2018-08-31T11:21:50.674Z,20.97
2018-08-31T11:22:50.598Z,21.09
2018-08-31T11:23:50.482Z,20.96
2018-08-31T11:24:50.390Z,20.99
2018-08-31T11:25:50.326Z,20.97
2018-08-31T11:26:50.214Z,21.11
2018-08-31T11:27:50.159Z,21.11
2018-08-31T11:28:50.030Z,21.07
2018-08-31T11:29:49.940Z,21.00
2018-08-31T11:30:49.836Z,21.07
2018-08-31T11:31:49.745Z,21.21
2018-08-31T11:32:49.653Z,21.32
2018-08-31T11:33:49.561Z,21.52
2018-08-31T11:34:49.467Z,21.58
2018-08-31T11:35:49.371Z,21.79
2018-08-31T11:36:49.285Z,22.11
2018-08-31T11:37:49.185Z,22.13
2018-08-31T11:38:49.095Z,22.20
2018-08-31T11:39:49.001Z,22.45
2018-08-31T11:40:48.898Z,22.55
2018-08-31T11:41:48.811Z,22.75
2018-08-31T11:42:48.722Z,22.88
2018-08-31T11:43:48.631Z,22.66
2018-08-31T11:44:48.539Z,22.73
2018-08-31T11:45:48.431Z,22.88
2018-08-31T11:46:48.344Z,22.94
2018-08-31T11:47:48.251Z,22.81
2018-08-31T11:48:48.160Z,22.57
2018-08-31T11:49:48.074Z,22.33
2018-08-31T11:50:47.970Z,22.44
2018-08-31T11:51:47.875Z,22.22
2018-08-31T11:52:47.782Z,22.00
2018-08-31T11:53:47.697Z,21.95
2018-08-31T11:54:47.605Z,21.67
2018-08-31T11:55:47.506Z,21.69
2018-08-31T11:56:47.417Z,21.60
2018-08-31T11:57:47.322Z,21.52
2018-08-31T11:58:47.229Z,21.51
2018-08-31T11:59:47.130Z,21.67
2018-08-31T12:00:47.050Z,21.73
2018-08-31T12:01:46.946Z,21.76
2018-08-31T12:02:46.864Z,22.07
2018-08-31T12:03:46.759Z,22.22
2018-08-31T12:04:46.663Z,22.33
2018-08-31T12:05:46.569Z,22.22
2018-08-31T12:06:46.483Z,22.13
2018-08-31T12:07:46.412Z,21.99
2018-08-31T12:08:46.296Z,21.76
2018-08-31T12:09:46.196Z,21.85
2018-08-31T12:10:46.106Z,21.73
2018-08-31T12:11:46.013Z,21.48
2018-08-31T12:12:45.921Z,21.43
2018-08-31T12:13:45.826Z,21.50
2018-08-31T12:14:45.724Z,21.29
2018-08-31T12:15:45.636Z,21.11
2018-08-31T12:16:45.546Z,21.02
2018-08-31T12:17:45.450Z,21.11
2018-08-31T12:18:45.347Z,21.27
2018-08-31T12:19:45.264Z,21.48
2018-08-31T12:20:45.167Z,21.64
2018-08-31T12:21:45.081Z,21.80
2018-08-31T12:22:44.984Z,22.23
2018-08-31T12:23:44.881Z,22.32
2018-08-31T12:24:44.790Z,22.33
2018-08-31T12:25:44.703Z,22.41
2018-08-31T12:26:44.602Z,22.53
2018-08-31T12:27:44.562Z,22.45
2018-08-31T12:28:44.420Z,22.57
2018-08-31T12:29:44.326Z,22.53
2018-08-31T12:30:44.223Z,22.60
2018-08-31T12:31:44.135Z,22.47
2018-08-31T12:32:44.048Z,22.30
2018-08-31T12:33:43.950Z,22.11
2018-08-31T12:34:43.859Z,22.20
2018-08-31T12:35:43.754Z,22.18
2018-08-31T12:36:43.662Z,22.20
2018-08-31T12:37:43.577Z,22.25
2018-08-31T12:38:43.486Z,22.29
2018-08-31T12:39:43.393Z,22.45
2018-08-31T12:40:43.289Z,22.39
2018-08-31T12:41:43.205Z,22.20
2018-08-31T12:42:43.112Z,22.13
2018-08-31T12:43:43.059Z,22.11
2018-08-31T12:44:42.919Z,22.13
2018-08-31T12:45:42.821Z,22.08
2018-08-31T12:46:42.731Z,21.85
2018-08-31T12:47:42.648Z,21.85
2018-08-31T12:48:42.554Z,21.69
2018-08-31T12:49:42.448Z,21.66
2018-08-31T12:50:42.356Z,21.62
2018-08-31T12:51:42.276Z,21.66